Time;durP1;ratioP1;P1;durP2;ratioP2;P2;SDS_P1;SDS_P2;PMS_P1;PMS_P2;Temp;Humidity;BMP_temperature;BMP_pressure;BME280_temperature;BME280_humidity;BME280_pressure;Samples;Min_cycle;Max_cycle;Signal;HPM_P1;HPM_P2
2021/08/20 00:02:16;;;;;;;3.42;2.10;;;;;;;23.02;48.29;99863.69;5033295;28;20052;-85
2021/08/20 00:04:43;;;;;;;5.22;2.17;;;;;;;22.99;48.23;99869.34;5032492;28;20050;-85
2021/08/20 00:07:10;;;;;;;2.45;2.00;;;;;;;22.90;48.43;99863.16;5032965;28;20049;-85
2021/08/20 00:09:37;;;;;;;2.63;1.95;;;;;;;22.77;48.37;99864.66;5032707;28;20050;-84
2021/08/20 00:12:05;;;;;;;5.88;2.40;;;;;;;22.65;48.85;99866.78;5033046;28;20052;-85
2021/08/20 00:14:32;;;;;;;3.92;1.92;;;;;;;22.62;49.10;99862.63;5032571;28;20091;-85
2021/08/20 00:16:58;;;;;;;3.55;2.10;;;;;;;22.56;49.37;99862.44;5033113;28;20129;-85
2021/08/20 00:19:25;;;;;;;7.70;2.22;;;;;;;22.49;49.28;99862.28;5032525;28;20044;-85
2021/08/20 00:21:52;;;;;;;3.83;2.10;;;;;;;22.65;49.02;99857.00;5032753;28;20095;-85
2021/08/20 00:24:20;;;;;;;4.05;2.28;;;;;;;22.53;48.93;99860.97;5031417;28;20124;-85
2021/08/20 00:26:47;;;;;;;3.70;2.00;;;;;;;22.45;48.80;99856.44;5032363;28;20119;-85
2021/08/20 00:29:14;;;;;;;3.38;1.80;;;;;;;22.20;49.92;99860.03;5031344;28;20042;-85
2021/08/20 00:31:40;;;;;;;4.57;2.17;;;;;;;22.11;49.99;99861.00;5047533;28;20119;-85
2021/08/20 00:34:07;;;;;;;3.53;2.42;;;;;;;22.13;49.69;99859.00;5032742;28;20041;-84
2021/08/20 00:36:34;;;;;;;4.75;2.45;;;;;;;22.23;49.27;99859.72;5032623;28;20041;-85
2021/08/20 00:39:01;;;;;;;5.35;2.42;;;;;;;22.27;49.01;99860.22;5032906;28;20056;-84
2021/08/20 00:41:29;;;;;;;2.72;1.90;;;;;;;22.25;49.29;99862.19;5030503;28;20045;-85
2021/08/20 00:43:56;;;;;;;2.67;1.90;;;;;;;22.20;49.49;99863.50;5047347;28;20033;-85
2021/08/20 00:46:23;;;;;;;3.63;2.28;;;;;;;22.14;49.84;99855.34;5030952;28;20054;-83
2021/08/20 00:48:50;;;;;;;3.47;1.80;;;;;;;22.23;49.19;99860.53;5032288;28;20060;-83
2021/08/20 00:51:24;;;;;;;4.97;2.72;;;;;;;22.19;49.54;99861.84;5048000;28;20401;-83
2021/08/20 00:53:52;;;;;;;2.40;2.00;;;;;;;22.18;49.84;99862.00;5047529;28;20045;-83
2021/08/20 00:56:19;;;;;;;7.40;2.15;;;;;;;21.97;50.34;99852.59;5030901;28;20061;-82
2021/08/20 00:58:50;;;;;;;3.42;2.40;;;;;;;21.90;50.32;99853.41;5031904;28;20476;-83
2021/08/20 01:01:19;;;;;;;2.75;1.85;;;;;;;21.96;49.93;99856.25;5021728;28;20049;-83
2021/08/20 01:03:47;;;;;;;4.32;1.90;;;;;;;21.87;50.00;99857.22;5024393;28;20100;-83
2021/08/20 01:06:14;;;;;;;2.33;1.73;;;;;;;21.80;50.27;99858.84;5047659;28;20128;-83
2021/08/20 01:08:41;;;;;;;4.43;2.75;;;;;;;21.80;50.44;99850.88;5031897;28;20041;-84
2021/08/20 01:11:10;;;;;;;5.32;2.00;;;;;;;21.76;50.35;99846.88;5032088;28;20056;-83
2021/08/20 01:13:39;;;;;;;7.60;2.65;;;;;;;21.80;50.13;99848.22;5031814;28;20056;-83
2021/08/20 01:16:06;;;;;;;4.28;2.15;;;;;;;21.75;50.23;99845.22;5047615;28;20045;-83
2021/08/20 01:18:38;;;;;;;3.97;1.83;;;;;;;21.71;50.30;99846.50;5030853;28;20037;-85
2021/08/20 01:21:09;;;;;;;6.80;2.10;;;;;;;21.77;50.18;99848.53;5047177;28;20041;-84
2021/08/20 01:23:37;;;;;;;2.97;2.00;;;;;;;21.77;50.30;99840.56;5014671;28;20065;-84
2021/08/20 01:26:06;;;;;;;5.75;2.17;;;;;;;21.67;50.64;99848.66;5030634;28;20063;-84
2021/08/20 01:28:34;;;;;;;3.67;2.00;;;;;;;21.45;51.37;99850.00;5030750;28;20037;-84
2021/08/20 01:31:04;;;;;;;2.72;2.20;;;;;;;21.29;51.95;99847.22;5047051;28;20046;-84
2021/08/20 01:33:33;;;;;;;4.15;2.10;;;;;;;21.41;51.44;99843.38;5031047;28;20103;-84
2021/08/20 01:36:00;;;;;;;2.35;1.90;;;;;;;21.49;51.13;99834.63;5030136;28;20083;-84
2021/08/20 01:38:27;;;;;;;2.78;2.10;;;;;;;21.50;51.21;99838.09;5032011;28;20068;-84
2021/08/20 01:40:55;;;;;;;6.18;2.83;;;;;;;21.40;51.75;99848.81;5030444;28;20077;-83
2021/08/20 01:43:22;;;;;;;2.53;2.20;;;;;;;21.35;51.79;99841.31;5030349;28;20129;-83
2021/08/20 01:45:50;;;;;;;2.08;1.80;;;;;;;21.32;51.83;99841.66;5031906;28;20480;-83
2021/08/20 01:48:18;;;;;;;5.38;2.47;;;;;;;21.37;51.54;99844.66;5031164;28;20073;-83
2021/08/20 01:50:45;;;;;;;6.63;2.20;;;;;;;21.42;51.43;99841.56;5031813;28;20042;-83
2021/08/20 01:53:13;;;;;;;5.88;2.17;;;;;;;21.46;51.08;99837.59;5030492;28;20095;-83
2021/08/20 01:55:44;;;;;;;5.13;2.10;;;;;;;21.45;51.16;99836.75;5034063;28;20045;-83
2021/08/20 01:58:12;;;;;;;3.05;1.60;;;;;;;21.48;50.94;99848.06;5050593;28;20045;-85
2021/08/20 02:00:40;;;;;;;3.15;2.75;;;;;;;21.52;51.13;99841.41;5051001;28;20076;-85
2021/08/20 02:03:09;;;;;;;4.00;1.70;;;;;;;21.54;51.11;99842.13;5033757;28;20042;-84
2021/08/20 02:05:36;;;;;;;2.45;2.10;;;;;;;21.32;51.54;99846.94;5033993;28;20128;-83
2021/08/20 02:08:05;;;;;;;3.83;2.75;;;;;;;21.26;52.10;99844.91;5033953;28;20437;-82
2021/08/20 02:10:32;;;;;;;4.65;1.92;;;;;;;21.34;51.75;99846.78;5050883;28;20034;-83
2021/08/20 02:12:59;;;;;;;3.10;1.77;;;;;;;21.54;51.23;99847.41;5034107;28;20056;-83
2021/08/20 02:15:29;;;;;;;10.05;2.67;;;;;;;21.42;51.53;99847.69;5013920;28;20073;-83
2021/08/20 02:17:56;;;;;;;5.32;2.50;;;;;;;21.34;51.74;99838.84;5048847;28;20062;-83
2021/08/20 02:20:26;;;;;;;4.65;2.47;;;;;;;21.43;51.79;99845.88;5033508;28;20046;-84
2021/08/20 02:22:53;;;;;;;4.60;1.83;;;;;;;21.29;52.32;99844.56;5033628;28;20116;-84
2021/08/20 02:25:22;;;;;;;2.67;2.00;;;;;;;21.44;52.24;99852.81;5033068;28;20045;-84
2021/08/20 02:27:51;;;;;;;4.57;2.53;;;;;;;21.45;52.19;99847.34;5033758;28;20046;-84
2021/08/20 02:30:17;;;;;;;3.63;2.25;;;;;;;21.21;52.33;99847.19;5034920;28;20550;-84
2021/08/20 02:32:48;;;;;;;2.70;2.33;;;;;;;21.21;52.29;99847.19;5033442;28;20049;-84
2021/08/20 02:35:24;;;;;;;4.15;2.13;;;;;;;21.37;51.90;99844.66;5049692;28;20053;-84
2021/08/20 02:37:53;;;;;;;8.05;2.20;;;;;;;21.34;52.07;99846.78;5049595;28;20386;-83
2021/08/20 02:40:21;;;;;;;2.60;1.90;;;;;;;21.35;52.30;99843.97;5049954;28;20049;-83
2021/08/20 02:42:49;;;;;;;3.15;1.98;;;;;;;21.18;52.74;99845.66;5032738;28;20037;-86
2021/08/20 02:45:17;;;;;;;5.70;2.20;;;;;;;21.32;51.69;99841.66;5033507;28;20049;-85
2021/08/20 02:47:46;;;;;;;3.95;2.22;;;;;;;21.27;52.21;99841.25;5016242;28;20079;-84
2021/08/20 02:50:14;;;;;;;4.85;3.05;;;;;;;21.18;51.98;99842.16;5034311;28;20064;-84
2021/08/20 02:52:44;;;;;;;3.83;2.55;;;;;;;21.41;51.35;99843.38;5032827;28;20450;-87
2021/08/20 02:55:11;;;;;;;1.90;1.80;;;;;;;21.33;52.00;99840.66;5034776;28;20091;-86
2021/08/20 02:57:42;;;;;;;5.10;2.35;;;;;;;21.10;53.01;99844.78;5032785;28;20091;-86
2021/08/20 03:00:10;;;;;;;3.35;1.77;;;;;;;21.08;53.18;99831.66;5033311;28;20435;-86
2021/08/20 03:02:38;;;;;;;2.67;1.85;;;;;;;21.20;52.48;99840.22;5049321;28;20045;-86
2021/08/20 03:05:06;;;;;;;3.95;2.03;;;;;;;21.26;52.33;99838.75;5033919;28;20069;-86
2021/08/20 03:07:35;;;;;;;3.83;2.58;;;;;;;21.31;51.79;99837.34;5049559;28;20044;-86
2021/08/20 03:10:03;;;;;;;3.03;2.40;;;;;;;21.36;51.61;99837.72;5032428;28;20499;-84
2021/08/20 03:12:30;;;;;;;5.03;2.15;;;;;;;21.50;51.25;99835.47;5034003;28;20041;-83
2021/08/20 03:14:57;;;;;;;4.20;2.08;;;;;;;21.44;51.42;99837.75;5032313;28;20149;-83
2021/08/20 03:17:30;;;;;;;4.55;2.03;;;;;;;21.33;51.87;99832.72;5049722;28;20411;-85
2021/08/20 03:20:03;;;;;;;2.38;1.95;;;;;;;21.23;52.35;99837.25;5032335;28;20111;-84
2021/08/20 03:22:30;;;;;;;4.38;1.83;;;;;;;21.32;51.80;99841.66;5033580;28;20076;-85
2021/08/20 03:25:00;;;;;;;3.33;2.45;;;;;;;21.32;51.69;99839.00;5049076;28;20404;-85
2021/08/20 03:27:28;;;;;;;2.45;2.03;;;;;;;21.17;52.63;99840.50;5049138;28;20052;-85
2021/08/20 03:30:18;;;;;;;5.20;2.50;;;;;;;21.26;52.41;99842.25;5048499;28;20077;-85
2021/08/20 03:32:58;;;;;;;4.65;2.22;;;;;;;21.33;52.02;99839.81;5049238;28;20045;-85
2021/08/20 03:35:25;;;;;;;3.97;1.90;;;;;;;21.07;52.80;99840.59;5048050;28;20096;-85
2021/08/20 03:38:00;;;;;;;4.40;2.40;;;;;;;21.00;53.37;99844.03;5032272;28;20558;-88
2021/08/20 03:40:33;;;;;;;2.15;1.90;;;;;;;20.86;53.81;99842.75;5033619;28;20068;-82
2021/08/20 03:43:02;;;;;;;5.32;2.17;;;;;;;20.98;53.33;99843.34;5031636;28;20065;-82
2021/08/20 03:45:43;;;;;;;4.50;2.38;;;;;;;21.04;53.17;99837.41;5032080;28;20128;-84
2021/08/20 03:48:30;;;;;;;3.08;1.83;;;;;;;21.02;53.46;99847.34;5032483;28;20095;-83
2021/08/20 03:50:59;;;;;;;2.53;1.83;;;;;;;21.01;53.54;99846.53;5048608;28;20381;-83
2021/08/20 03:53:26;;;;;;;4.13;1.95;;;;;;;20.98;53.63;99849.47;5031430;28;20041;-81
2021/08/20 03:55:54;;;;;;;3.92;2.30;;;;;;;20.98;53.57;99853.94;5032089;28;20041;-82
2021/08/20 03:58:39;;;;;;;3.42;1.90;;;;;;;21.00;53.18;99855.47;5032538;28;20515;-82
2021/08/20 04:01:11;;;;;;;3.15;1.90;;;;;;;21.28;52.42;99858.81;5048139;28;20056;-82
2021/08/20 04:03:42;;;;;;;5.55;2.65;;;;;;;21.18;52.95;99863.38;5031563;28;20042;-81
2021/08/20 04:06:20;;;;;;;6.50;2.40;;;;;;;21.00;53.54;99859.94;5031589;28;20103;-82
2021/08/20 04:08:46;;;;;;;4.32;2.55;;;;;;;20.87;53.70;99863.78;5048088;28;20120;-81
2021/08/20 04:11:31;;;;;;;4.22;2.20;;;;;;;20.89;53.67;99872.44;5048121;28;20045;-82
2021/08/20 04:14:04;;;;;;;3.30;2.03;;;;;;;20.83;53.78;99864.25;5031212;28;20048;-82
2021/08/20 04:16:31;;;;;;;3.58;2.53;;;;;;;20.99;53.48;99874.16;5030884;28;20047;-84
2021/08/20 04:18:58;;;;;;;4.80;2.58;;;;;;;20.93;54.00;99876.44;5047211;28;20053;-82
2021/08/20 04:21:26;;;;;;;4.05;2.35;;;;;;;20.98;53.76;99877.78;5031198;28;20045;-82
2021/08/20 04:23:53;;;;;;;6.85;2.33;;;;;;;20.98;53.63;99883.09;5047995;28;20120;-82
2021/08/20 04:26:20;;;;;;;6.95;3.35;;;;;;;20.98;53.65;99883.09;5047837;28;20033;-81
2021/08/20 04:29:02;;;;;;;3.83;2.80;;;;;;;20.99;53.99;99887.41;5032715;28;20037;-82
2021/08/20 04:31:43;;;;;;;5.78;2.78;;;;;;;20.97;54.24;99881.41;5030789;28;20472;-82
2021/08/20 04:34:39;;;;;;;7.50;2.55;;;;;;;20.90;54.50;99882.03;5027724;28;20424;-82
2021/08/20 04:37:33;;;;;;;6.68;2.47;;;;;;;20.70;54.88;99891.09;5025774;28;20061;-82
2021/08/20 04:40:18;;;;;;;2.72;2.10;;;;;;;20.71;54.34;99891.94;5028538;28;20053;-81
2021/08/20 04:43:18;;;;;;;3.60;2.08;;;;;;;20.75;53.98;99890.66;5019884;28;20496;-81
2021/08/20 04:46:05;;;;;;;2.70;1.77;;;;;;;20.93;53.44;99896.78;5025229;28;20133;-82
2021/08/20 04:48:57;;;;;;;2.60;1.88;;;;;;;20.89;53.75;99898.09;5041290;28;20042;-82
2021/08/20 04:51:43;;;;;;;5.25;2.38;;;;;;;21.06;53.59;99901.72;5031619;28;20495;-83
2021/08/20 04:54:17;;;;;;;2.73;2.53;;;;;;;21.06;53.48;99902.53;5030566;28;20041;-83
2021/08/20 04:56:53;;;;;;;3.17;2.25;;;;;;;21.48;52.99;99909.03;5030419;28;20710;-83
2021/08/20 04:59:20;;;;;;;5.47;2.30;;;;;;;21.71;52.48;99903.06;5030798;28;20042;-84
2021/08/20 05:01:47;;;;;;;6.40;3.10;;;;;;;21.45;53.47;99915.47;5030490;28;20077;-83
2021/08/20 05:04:16;;;;;;;3.83;2.47;;;;;;;21.42;53.26;99903.38;5030555;28;20474;-82
2021/08/20 05:06:43;;;;;;;2.72;2.50;;;;;;;21.44;52.47;99914.66;5028210;28;20534;-83
2021/08/20 05:09:10;;;;;;;9.25;2.42;;;;;;;21.51;52.15;99916.66;5021570;28;20377;-83
2021/08/20 05:11:38;;;;;;;8.52;2.67;;;;;;;21.80;51.21;99913.72;5042134;28;20038;-83
2021/08/20 05:14:05;;;;;;;10.20;2.92;;;;;;;22.08;51.19;99903.75;5025180;28;20050;-84
2021/08/20 05:16:31;;;;;;;4.43;2.40;;;;;;;22.10;51.04;99917.69;5029499;28;20050;-85
2021/08/20 05:18:58;;;;;;;3.28;2.80;;;;;;;22.28;51.75;99921.13;5024710;28;20072;-83
2021/08/20 05:21:25;;;;;;;3.55;2.50;;;;;;;22.30;50.83;99913.81;5025756;28;20045;-83
2021/08/20 05:23:52;;;;;;;6.85;3.40;;;;;;;22.40;50.82;99919.84;5029580;28;20399;-88
2021/08/20 05:26:18;;;;;;;5.50;2.95;;;;;;;22.31;50.13;99926.09;5029952;28;20072;-82
2021/08/20 05:28:45;;;;;;;2.63;2.13;;;;;;;22.27;50.78;99930.09;5029302;28;20423;-83
2021/08/20 05:31:12;;;;;;;4.97;2.10;;;;;;;22.69;48.87;99931.88;5033068;28;20480;-82
2021/08/20 05:33:40;;;;;;;3.63;3.00;;;;;;;22.70;48.80;99930.91;5028929;28;20050;-81
2021/08/20 05:36:07;;;;;;;3.83;2.50;;;;;;;22.65;49.53;99927.91;5019993;28;20389;-83
2021/08/20 05:38:34;;;;;;;8.93;3.83;;;;;;;22.63;50.35;99927.22;5018907;28;20111;-83
2021/08/20 05:41:01;;;;;;;7.55;2.85;;;;;;;22.89;50.34;99922.66;5032091;28;20045;-82
2021/08/20 05:43:32;;;;;;;2.47;2.00;;;;;;;22.95;49.90;99932.63;5036450;28;20071;-81
2021/08/20 05:45:59;;;;;;;8.90;3.75;;;;;;;23.02;49.96;99934.66;5020585;28;20045;-86
2021/08/20 05:48:26;;;;;;;6.80;3.22;;;;;;;22.85;50.06;99937.25;5022984;28;20180;-85
2021/08/20 05:50:53;;;;;;;6.35;2.33;;;;;;;23.45;48.60;99938.81;5020514;28;20092;-84
2021/08/20 05:53:19;;;;;;;6.55;3.25;;;;;;;23.81;47.15;99939.31;5019546;28;20065;-85
2021/08/20 05:55:46;;;;;;;13.77;2.63;;;;;;;23.79;47.42;99938.63;5032045;28;20088;-88
2021/08/20 05:58:13;;;;;;;3.03;2.17;;;;;;;23.78;46.95;99936.97;5033977;28;20060;-86
2021/08/20 06:00:40;;;;;;;7.43;2.72;;;;;;;23.22;48.54;99941.28;5033830;28;20112;-87
2021/08/20 06:03:09;;;;;;;3.67;2.50;;;;;;;23.58;47.36;99946.28;5029288;28;20503;-88
2021/08/20 06:05:40;;;;;;;8.48;2.67;;;;;;;23.32;47.92;99947.28;5048155;28;20041;-90
2021/08/20 06:08:07;;;;;;;5.32;2.83;;;;;;;23.47;47.28;99950.09;5043307;28;20492;-88
2021/08/20 06:10:34;;;;;;;4.47;3.05;;;;;;;23.17;47.66;99954.25;5032056;28;20087;-92
2021/08/20 06:13:03;;;;;;;4.63;2.40;;;;;;;23.63;47.69;99955.44;5029142;28;20037;-85
2021/08/20 06:15:29;;;;;;;4.82;3.00;;;;;;;23.59;47.45;99953.25;5031585;28;20430;-86
2021/08/20 06:17:56;;;;;;;3.92;3.10;;;;;;;23.71;47.21;99962.59;5032572;28;20071;-87
2021/08/20 06:20:23;;;;;;;3.92;2.55;;;;;;;23.74;46.88;99968.41;5032951;28;20439;-83
2021/08/20 06:22:49;;;;;;;3.75;2.67;;;;;;;23.51;46.83;99970.88;5029545;28;20045;-83
2021/08/20 06:25:17;;;;;;;7.22;2.65;;;;;;;23.45;46.72;99966.25;5031984;28;20064;-83
2021/08/20 06:27:45;;;;;;;5.47;3.15;;;;;;;23.28;46.68;99967.25;5032725;28;20037;-82
2021/08/20 06:30:12;;;;;;;6.93;2.45;;;;;;;23.89;45.51;99976.53;5031194;28;20042;-87
2021/08/20 06:32:39;;;;;;;4.05;2.60;;;;;;;23.51;46.16;99967.41;5032194;28;20057;-84
2021/08/20 06:35:06;;;;;;;6.70;2.80;;;;;;;23.59;46.37;99975.38;5030185;28;20029;-87
2021/08/20 06:37:33;;;;;;;3.10;2.80;;;;;;;23.37;47.60;99976.03;5032440;28;20496;-88
2021/08/20 06:40:00;;;;;;;4.55;2.70;;;;;;;23.96;45.98;99980.16;5031623;28;20106;-89
2021/08/20 06:42:26;;;;;;;2.50;2.20;;;;;;;23.69;46.70;99983.22;5032413;28;20042;-91
2021/08/20 06:44:53;;;;;;;10.98;2.65;;;;;;;23.97;46.21;99983.66;5032623;28;20042;-90
2021/08/20 06:47:20;;;;;;;7.53;2.40;;;;;;;23.52;46.52;99975.22;5030373;28;20132;-89
2021/08/20 06:49:47;;;;;;;6.32;2.95;;;;;;;23.42;46.95;99979.03;5032352;28;20050;-89
2021/08/20 06:52:13;;;;;;;7.47;2.72;;;;;;;23.41;46.96;99977.38;5033356;28;20132;-88
2021/08/20 06:54:40;;;;;;;9.13;3.17;;;;;;;23.47;47.72;99982.84;5034380;28;20033;-90
2021/08/20 06:57:07;;;;;;;5.55;2.10;;;;;;;23.69;46.52;99975.22;5034136;28;20096;-87
2021/08/20 06:59:34;;;;;;;6.47;2.42;;;;;;;23.81;46.57;99973.91;5033895;28;20083;-87
2021/08/20 07:02:01;;;;;;;4.90;2.63;;;;;;;23.70;46.41;99982.19;5033840;28;20080;-85
2021/08/20 07:04:28;;;;;;;12.15;2.70;;;;;;;23.95;46.53;99980.34;5032423;28;20122;-86
2021/08/20 07:06:55;;;;;;;8.13;2.55;;;;;;;24.14;45.88;99979.97;5033992;28;20084;-88
2021/08/20 07:09:24;;;;;;;10.00;2.60;;;;;;;24.23;45.58;99972.78;5033976;28;20451;-89
2021/08/20 07:11:51;;;;;;;4.38;2.40;;;;;;;24.16;46.21;99977.97;5034184;28;20033;-89
2021/08/20 07:14:18;;;;;;;7.50;2.78;;;;;;;24.29;45.72;99980.13;5033452;28;20521;-89
2021/08/20 07:16:46;;;;;;;8.48;3.28;;;;;;;24.17;46.06;99984.94;5034182;28;20488;-92
2021/08/20 07:19:13;;;;;;;7.68;2.50;;;;;;;24.32;45.65;99977.09;5033613;28;20045;-87
2021/08/20 07:21:39;;;;;;;5.88;2.50;;;;;;;24.21;45.15;99978.28;5033511;28;20057;-89
2021/08/20 07:24:07;;;;;;;4.22;2.70;;;;;;;24.33;44.46;99978.75;5029355;28;20045;-88
2021/08/20 07:26:34;;;;;;;8.75;3.08;;;;;;;23.95;45.34;99983.84;5028293;28;20428;-90
2021/08/20 07:29:03;;;;;;;4.97;2.78;;;;;;;24.00;45.28;99978.00;5032186;28;20088;-91
2021/08/20 07:31:30;;;;;;;7.13;3.80;;;;;;;24.28;44.92;99978.44;5031610;28;20045;-86
2021/08/20 07:33:57;;;;;;;7.15;2.67;;;;;;;24.43;45.15;99984.72;5040193;28;20547;-87
2021/08/20 07:36:23;;;;;;;4.40;2.45;;;;;;;24.48;45.13;99984.22;5025297;28;20086;-88
2021/08/20 07:38:50;;;;;;;3.63;2.47;;;;;;;24.42;45.06;99985.75;5027226;28;20050;-87
2021/08/20 07:41:17;;;;;;;4.82;3.28;;;;;;;24.67;44.76;99986.47;5035244;28;20037;-84
2021/08/20 07:43:43;;;;;;;8.73;4.28;;;;;;;24.81;44.32;99988.38;5045974;28;20107;-85
2021/08/20 07:46:10;;;;;;;5.75;2.85;;;;;;;24.65;44.84;99992.97;5028050;28;20516;-85
2021/08/20 07:48:37;;;;;;;5.53;2.90;;;;;;;24.75;44.59;99988.25;5029044;28;20051;-85
2021/08/20 07:51:04;;;;;;;5.82;2.90;;;;;;;24.73;44.13;99984.94;5029240;28;20100;-86
2021/08/20 07:53:31;;;;;;;5.63;2.42;;;;;;;24.82;43.66;99975.88;5027308;28;20108;-85
2021/08/20 07:55:58;;;;;;;3.58;3.13;;;;;;;24.65;43.68;99982.31;5028454;28;20457;-85
2021/08/20 07:58:25;;;;;;;6.25;2.47;;;;;;;25.08;43.29;99986.25;5030029;28;20523;-85
2021/08/20 08:00:52;;;;;;;6.75;3.05;;;;;;;25.34;42.77;99986.75;5030247;28;20041;-85
2021/08/20 08:03:20;;;;;;;7.28;3.03;;;;;;;25.42;42.84;99985.03;5030875;28;20045;-85
2021/08/20 08:05:47;;;;;;;4.80;2.30;;;;;;;25.60;42.56;99986.38;5027347;28;20053;-87
2021/08/20 08:08:14;;;;;;;5.38;1.90;;;;;;;25.76;42.05;99987.25;5030425;28;20060;-87
2021/08/20 08:10:41;;;;;;;4.65;2.95;;;;;;;25.67;42.31;99989.13;5029775;28;20084;-87
2021/08/20 08:13:08;;;;;;;4.85;2.58;;;;;;;25.77;41.91;99992.41;5029499;28;20096;-86
2021/08/20 08:15:35;;;;;;;10.32;2.85;;;;;;;25.87;41.32;99992.16;5028694;28;20037;-85
2021/08/20 08:18:08;;;;;;;3.25;2.38;;;;;;;25.95;40.71;99996.59;5027585;28;20086;-86
2021/08/20 08:20:35;;;;;;;4.38;2.60;;;;;;;25.85;41.00;99997.69;5029803;28;20042;-87
2021/08/20 08:23:02;;;;;;;10.27;3.15;;;;;;;25.82;40.75;99986.53;5029062;28;20089;-85
2021/08/20 08:25:30;;;;;;;4.93;2.45;;;;;;;25.46;41.50;99992.50;5029019;28;20143;-85
2021/08/20 08:27:59;;;;;;;7.07;2.40;;;;;;;25.55;41.55;99995.91;5027875;28;20454;-85
2021/08/20 08:30:28;;;;;;;4.93;3.03;;;;;;;25.58;41.76;99991.06;5029523;28;20512;-85
2021/08/20 08:32:58;;;;;;;4.40;2.88;;;;;;;25.90;40.90;99997.16;5029886;28;20125;-85
2021/08/20 08:35:29;;;;;;;10.68;3.13;;;;;;;25.86;41.06;99998.50;5030718;28;20053;-86
2021/08/20 08:38:10;;;;;;;5.68;2.10;;;;;;;25.76;39.92;99997.94;5026976;28;20508;-86
2021/08/20 08:40:39;;;;;;;8.60;3.60;;;;;;;25.69;40.05;100005.81;5029492;28;20092;-86
2021/08/20 08:43:07;;;;;;;6.43;3.08;;;;;;;25.71;39.99;100005.63;5028893;28;20045;-86
2021/08/20 08:45:34;;;;;;;23.38;4.40;;;;;;;25.86;39.75;100011.88;5043628;28;20091;-86
2021/08/20 08:48:04;;;;;;;16.83;3.13;;;;;;;26.00;39.53;100004.91;5029651;28;20108;-86
2021/08/20 08:50:31;;;;;;;7.22;2.97;;;;;;;25.96;39.61;100004.44;5031118;28;20049;-86
2021/08/20 08:52:58;;;;;;;4.82;2.30;;;;;;;26.05;38.73;100007.84;5028684;28;20088;-85
2021/08/20 08:55:25;;;;;;;11.55;4.00;;;;;;;25.92;38.82;100008.47;5027469;28;20041;-85
2021/08/20 08:57:52;;;;;;;9.35;2.83;;;;;;;25.66;38.73;99998.16;5046243;28;20042;-85
2021/08/20 09:00:39;;;;;;;6.88;2.63;;;;;;;25.77;38.83;100012.94;5028572;28;20075;-84
2021/08/20 09:03:24;;;;;;;5.88;3.05;;;;;;;25.82;38.17;100010.56;5028718;28;20092;-85
2021/08/20 09:05:51;;;;;;;3.65;2.40;;;;;;;25.94;37.79;100017.16;5032078;28;20107;-86
2021/08/20 09:08:20;;;;;;;3.53;2.60;;;;;;;25.66;38.51;100021.34;5033586;28;20409;-83
2021/08/20 09:10:50;;;;;;;7.45;2.97;;;;;;;25.95;38.44;100010.78;5028727;28;20045;-84
2021/08/20 09:13:17;;;;;;;6.93;2.40;;;;;;;26.02;37.92;100011.72;5032146;28;20416;-85
2021/08/20 09:15:45;;;;;;;2.83;2.25;;;;;;;26.23;38.07;100019.00;5033506;28;20045;-86
2021/08/20 09:18:22;;;;;;;5.80;3.00;;;;;;;26.15;37.38;100018.25;5031824;28;20041;-87
2021/08/20 09:20:50;;;;;;;10.43;2.45;;;;;;;26.11;37.87;100015.97;5032410;28;20412;-88
2021/08/20 09:23:23;;;;;;;4.22;2.70;;;;;;;25.94;38.15;100021.63;5033079;28;20037;-88
2021/08/20 09:25:52;;;;;;;7.97;2.83;;;;;;;26.14;37.98;100014.75;5032369;28;20045;-88
2021/08/20 09:28:18;;;;;;;4.28;2.53;;;;;;;26.41;38.09;100013.28;5014710;28;20037;-81
2021/08/20 09:31:00;;;;;;;3.35;2.50;;;;;;;26.40;37.95;100019.66;5033122;28;20495;-87
2021/08/20 09:33:33;;;;;;;6.97;2.92;;;;;;;26.24;38.01;100017.16;5034178;28;20148;-87
2021/08/20 09:36:09;;;;;;;7.00;2.22;;;;;;;26.06;38.80;100017.53;5032454;28;20461;-87
2021/08/20 09:38:40;;;;;;;7.35;2.92;;;;;;;25.92;39.15;100013.81;5031836;28;20088;-88
2021/08/20 09:41:15;;;;;;;4.60;2.90;;;;;;;26.20;38.67;100015.84;5033217;28;20037;-91
2021/08/20 09:43:46;;;;;;;5.75;2.97;;;;;;;26.26;38.89;100010.63;5035599;28;20041;-89
2021/08/20 09:46:18;;;;;;;5.63;2.55;;;;;;;26.53;39.03;100005.69;5035394;28;20484;-88
2021/08/20 09:48:46;;;;;;;4.65;2.47;;;;;;;26.54;39.05;100012.69;5034692;28;20523;-86
2021/08/20 09:51:33;;;;;;;6.72;2.60;;;;;;;26.66;38.71;99999.66;5035082;28;20045;-86
2021/08/20 09:54:02;;;;;;;5.32;2.40;;;;;;;26.31;39.55;100004.72;5035350;28;20128;-82
2021/08/20 09:56:46;;;;;;;5.45;2.60;;;;;;;26.61;39.40;99995.69;5034942;28;20047;-87
2021/08/20 09:59:15;;;;;;;6.55;2.13;;;;;;;26.72;39.75;99998.91;5034956;28;20041;-86
2021/08/20 10:01:44;;;;;;;6.43;2.30;;;;;;;26.74;39.66;99991.50;5034911;28;20395;-85
2021/08/20 10:04:14;;;;;;;5.30;2.63;;;;;;;26.60;40.32;100001.25;5035330;28;20046;-85
2021/08/20 10:06:43;;;;;;;7.88;2.22;;;;;;;26.42;40.81;99998.97;5034664;28;20045;-86
2021/08/20 10:09:14;;;;;;;7.10;2.50;;;;;;;26.72;40.74;99989.03;5035284;28;20045;-86
2021/08/20 10:11:52;;;;;;;4.00;1.90;;;;;;;26.86;40.59;99990.03;5035360;28;20049;-87
2021/08/20 10:14:22;;;;;;;3.60;2.67;;;;;;;26.72;41.25;99988.22;5034616;28;20041;-83
2021/08/20 10:16:49;;;;;;;7.90;2.58;;;;;;;26.71;41.88;99991.91;5034644;28;20439;-84
2021/08/20 10:19:17;;;;;;;9.35;3.17;;;;;;;26.66;41.67;99984.44;5034419;28;20133;-85
2021/08/20 10:21:44;;;;;;;6.70;2.47;;;;;;;27.10;40.87;99983.53;5035364;28;20431;-86
2021/08/20 10:24:13;;;;;;;4.65;2.60;;;;;;;26.93;40.96;99977.56;5033842;28;20049;-86
2021/08/20 10:26:51;;;;;;;5.28;2.25;;;;;;;27.02;40.64;99978.28;5035180;28;20049;-87
2021/08/20 10:29:26;;;;;;;3.72;2.30;;;;;;;27.11;40.57;99983.34;5035320;28;20523;-86
2021/08/20 10:31:53;;;;;;;5.70;2.38;;;;;;;26.76;40.77;99982.31;5035070;28;20095;-85
2021/08/20 10:34:29;;;;;;;8.38;2.15;;;;;;;27.00;40.08;99980.28;5034667;28;20103;-87
2021/08/20 10:37:05;;;;;;;4.88;2.35;;;;;;;27.08;39.07;99978.38;5027204;28;20044;-87
2021/08/20 10:39:31;;;;;;;2.63;1.85;;;;;;;27.12;39.23;99984.19;5030842;28;20380;-87
2021/08/20 10:42:05;;;;;;;3.78;2.72;;;;;;;26.95;38.28;99972.84;5030660;28;20045;-86
2021/08/20 10:44:40;;;;;;;;;;;;;;;27.04;38.89;99973.56;5031964;28;20049;-86
2021/08/20 10:47:07;;;;;;;3.92;1.92;;;;;;;27.11;38.39;99969.97;5031566;28;19948;-88
2021/08/20 10:49:43;;;;;;;3.70;2.22;;;;;;;27.25;37.85;99972.75;5030816;28;20054;-87
2021/08/20 10:52:26;;;;;;;8.00;2.20;;;;;;;27.35;36.58;99975.94;5032081;28;20041;-87
2021/08/20 10:54:52;;;;;;;4.93;1.92;;;;;;;27.33;36.75;99973.47;5032199;28;20491;-87
2021/08/20 10:57:35;;;;;;;4.13;1.92;;;;;;;27.22;37.94;99971.31;5027890;28;20045;-88
2021/08/20 11:00:05;;;;;;;2.45;2.03;;;;;;;27.24;37.57;99971.94;5042267;28;20034;-85
2021/08/20 11:02:42;;;;;;;2.30;1.80;;;;;;;27.42;37.17;99974.16;5033914;28;20049;-85
2021/08/20 11:05:14;;;;;;;7.10;2.00;;;;;;;27.62;36.36;99972.47;5049206;28;20124;-85
2021/08/20 11:07:49;;;;;;;8.00;2.05;;;;;;;27.54;36.37;99969.09;5033720;28;20492;-86
2021/08/20 11:10:16;;;;;;;2.75;2.08;;;;;;;27.47;37.53;99979.75;5033549;28;20048;-86
2021/08/20 11:12:49;;;;;;;3.75;1.77;;;;;;;27.50;37.76;99966.00;5033650;28;20092;-86
2021/08/20 11:15:22;;;;;;;4.57;2.47;;;;;;;27.71;37.20;99977.72;5033891;28;20048;-87
2021/08/20 11:17:54;;;;;;;;;;;;;;;27.76;36.89;99969.94;5042935;28;20455;-86
2021/08/20 11:20:36;;;;;;;4.38;2.20;;;;;;;27.83;36.76;99968.97;5032175;28;19957;-85
2021/08/20 11:25:57;;;;;;;3.08;2.28;;;;;;;27.66;37.28;99976.44;5033644;28;20037;-85
2021/08/20 11:28:39;;;;;;;3.22;1.90;;;;;;;27.45;36.80;99963.06;5032880;28;20049;-84
2021/08/20 11:31:12;;;;;;;4.25;1.88;;;;;;;27.86;36.75;99965.06;5033440;28;20099;-82
2021/08/20 11:33:46;;;;;;;2.80;1.90;;;;;;;27.85;37.29;99958.03;5033336;28;20054;-85
2021/08/20 11:36:17;;;;;;;6.80;2.28;;;;;;;28.01;37.17;99960.41;5033529;28;20451;-86
2021/08/20 11:38:59;;;;;;;16.05;2.47;;;;;;;28.03;37.27;99958.38;5048493;28;20054;-89
2021/08/20 11:42:04;;;;;;;12.25;2.90;;;;;;;27.81;38.08;99964.84;5049312;28;20042;-85
2021/08/20 11:44:25;;;;;;;9.88;2.65;;;;;;;27.87;37.89;99961.38;5031941;28;20463;-88
2021/08/20 11:46:53;;;;;;;8.77;2.47;;;;;;;27.83;37.72;99954.75;5033530;28;20069;-90
2021/08/20 11:49:24;;;;;;;4.90;2.60;;;;;;;28.04;37.55;99945.81;5034500;28;20127;-91